sensor_id;sensor_type;location;lat;lon;timestamp;P1;durP1;ratioP1;P2;durP2;ratioP2
16727;SDS011;8482;54.396;18.590;2023-03-18T09:37:54;11.30;;;5.20;;
16727;SDS011;8482;54.396;18.590;2023-03-18T09:40:29;10.55;;;4.90;;
16727;SDS011;8482;54.396;18.590;2023-03-18T09:49:26;8.90;;;4.35;;
16727;SDS011;8482;54.396;18.590;2023-03-18T09:52:36;10.23;;;4.60;;
16727;SDS011;8482;54.396;18.590;2023-03-18T09:55:42;10.27;;;5.07;;
16727;SDS011;8482;54.396;18.590;2023-03-18T09:58:16;9.77;;;4.65;;
16727;SDS011;8482;54.396;18.590;2023-03-18T10:01:07;9.88;;;4.82;;
16727;SDS011;8482;54.396;18.590;2023-03-18T10:03:46;8.55;;;4.47;;
16727;SDS011;8482;54.396;18.590;2023-03-18T10:06:40;8.48;;;4.40;;
16727;SDS011;8482;54.396;18.590;2023-03-18T10:09:18;10.30;;;4.80;;
16727;SDS011;8482;54.396;18.590;2023-03-18T10:11:54;9.30;;;5.30;;
16727;SDS011;8482;54.396;18.590;2023-03-18T10:27:20;10.70;;;5.15;;
16727;SDS011;8482;54.396;18.590;2023-03-18T10:30:18;12.27;;;6.15;;
16727;SDS011;8482;54.396;18.590;2023-03-18T10:33:21;10.82;;;5.55;;
16727;SDS011;8482;54.396;18.590;2023-03-18T10:39:20;10.27;;;5.25;;
16727;SDS011;8482;54.396;18.590;2023-03-18T10:41:50;8.80;;;5.03;;
16727;SDS011;8482;54.396;18.590;2023-03-18T10:44:37;9.45;;;4.88;;
16727;SDS011;8482;54.396;18.590;2023-03-18T10:47:10;8.60;;;4.82;;
16727;SDS011;8482;54.396;18.590;2023-03-18T10:50:20;12.65;;;5.70;;
16727;SDS011;8482;54.396;18.590;2023-03-18T10:55:48;10.77;;;5.25;;
16727;SDS011;8482;54.396;18.590;2023-03-18T10:58:30;11.07;;;6.05;;
16727;SDS011;8482;54.396;18.590;2023-03-18T11:00:56;12.68;;;5.60;;
16727;SDS011;8482;54.396;18.590;2023-03-18T11:03:36;7.97;;;4.68;;
16727;SDS011;8482;54.396;18.590;2023-03-18T11:06:22;9.40;;;4.85;;
16727;SDS011;8482;54.396;18.590;2023-03-18T11:09:09;9.77;;;5.10;;
16727;SDS011;8482;54.396;18.590;2023-03-18T11:11:41;10.25;;;4.53;;
16727;SDS011;8482;54.396;18.590;2023-03-18T11:14:18;9.27;;;4.85;;
16727;SDS011;8482;54.396;18.590;2023-03-18T11:17:14;8.98;;;4.57;;
16727;SDS011;8482;54.396;18.590;2023-03-18T11:20:02;8.70;;;4.90;;
16727;SDS011;8482;54.396;18.590;2023-03-18T11:23:02;11.07;;;5.55;;
16727;SDS011;8482;54.396;18.590;2023-03-18T11:25:37;13.65;;;5.38;;
16727;SDS011;8482;54.396;18.590;2023-03-18T11:28:05;11.32;;;5.68;;
16727;SDS011;8482;54.396;18.590;2023-03-18T11:30:51;8.95;;;5.00;;
16727;SDS011;8482;54.396;18.590;2023-03-18T11:33:25;9.75;;;5.00;;
16727;SDS011;8482;54.396;18.590;2023-03-18T11:35:57;10.82;;;4.70;;
16727;SDS011;8482;54.396;18.590;2023-03-18T11:38:34;10.77;;;5.22;;
16727;SDS011;8482;54.396;18.590;2023-03-18T11:41:05;11.85;;;5.47;;
16727;SDS011;8482;54.396;18.590;2023-03-18T11:43:35;9.27;;;4.60;;
16727;SDS011;8482;54.396;18.590;2023-03-18T11:46:03;9.98;;;5.57;;
16727;SDS011;8482;54.396;18.590;2023-03-18T11:48:40;11.70;;;5.43;;
16727;SDS011;8482;54.396;18.590;2023-03-18T11:56:59;9.40;;;4.72;;
16727;SDS011;8482;54.396;18.590;2023-03-18T12:00:47;10.20;;;4.95;;
16727;SDS011;8482;54.396;18.590;2023-03-18T12:06:22;11.40;;;5.35;;
16727;SDS011;8482;54.396;18.590;2023-03-18T12:19:55;11.63;;;5.22;;
16727;SDS011;8482;54.396;18.590;2023-03-18T12:22:46;11.25;;;5.13;;
16727;SDS011;8482;54.396;18.590;2023-03-18T12:25:58;10.00;;;5.70;;
16727;SDS011;8482;54.396;18.590;2023-03-18T12:28:39;10.17;;;5.50;;
16727;SDS011;8482;54.396;18.590;2023-03-18T12:32:19;8.30;;;5.13;;
16727;SDS011;8482;54.396;18.590;2023-03-18T12:55:03;10.55;;;4.93;;
16727;SDS011;8482;54.396;18.590;2023-03-18T12:57:47;11.88;;;4.72;;
16727;SDS011;8482;54.396;18.590;2023-03-18T13:17:00;10.43;;;5.75;;
16727;SDS011;8482;54.396;18.590;2023-03-18T13:19:28;9.63;;;4.90;;
16727;SDS011;8482;54.396;18.590;2023-03-18T13:22:13;11.27;;;5.80;;
16727;SDS011;8482;54.396;18.590;2023-03-18T13:31:08;9.93;;;4.68;;
16727;SDS011;8482;54.396;18.590;2023-03-18T13:40:01;9.65;;;5.07;;
16727;SDS011;8482;54.396;18.590;2023-03-18T13:43:01;9.13;;;4.85;;
16727;SDS011;8482;54.396;18.590;2023-03-18T13:45:30;10.32;;;5.60;;
16727;SDS011;8482;54.396;18.590;2023-03-18T13:48:06;11.63;;;6.15;;
16727;SDS011;8482;54.396;18.590;2023-03-18T13:50:36;10.13;;;5.25;;
16727;SDS011;8482;54.396;18.590;2023-03-18T13:58:55;14.00;;;7.20;;
16727;SDS011;8482;54.396;18.590;2023-03-18T14:01:25;10.60;;;5.80;;
16727;SDS011;8482;54.396;18.590;2023-03-18T14:07:17;9.48;;;4.85;;
16727;SDS011;8482;54.396;18.590;2023-03-18T14:09:50;9.85;;;4.60;;
16727;SDS011;8482;54.396;18.590;2023-03-18T14:20:14;10.50;;;5.05;;
16727;SDS011;8482;54.396;18.590;2023-03-18T14:22:42;10.13;;;4.57;;
16727;SDS011;8482;54.396;18.590;2023-03-18T14:33:05;11.48;;;5.80;;
16727;SDS011;8482;54.396;18.590;2023-03-18T14:38:48;11.35;;;5.57;;
16727;SDS011;8482;54.396;18.590;2023-03-18T14:41:27;12.60;;;5.63;;
16727;SDS011;8482;54.396;18.590;2023-03-18T14:46:45;11.75;;;5.45;;
16727;SDS011;8482;54.396;18.590;2023-03-18T14:52:34;10.10;;;5.28;;
16727;SDS011;8482;54.396;18.590;2023-03-18T14:55:07;12.48;;;5.50;;
16727;SDS011;8482;54.396;18.590;2023-03-18T14:57:43;12.60;;;6.22;;
16727;SDS011;8482;54.396;18.590;2023-03-18T15:00:17;10.40;;;5.63;;
16727;SDS011;8482;54.396;18.590;2023-03-18T15:02:46;10.60;;;5.85;;
16727;SDS011;8482;54.396;18.590;2023-03-18T15:05:23;11.27;;;5.90;;
16727;SDS011;8482;54.396;18.590;2023-03-18T15:07:55;11.52;;;5.88;;
16727;SDS011;8482;54.396;18.590;2023-03-18T15:10:22;11.65;;;5.93;;
16727;SDS011;8482;54.396;18.590;2023-03-18T15:13:00;11.15;;;5.63;;
16727;SDS011;8482;54.396;18.590;2023-03-18T15:15:38;12.23;;;6.13;;
16727;SDS011;8482;54.396;18.590;2023-03-18T15:23:51;14.68;;;6.47;;
16727;SDS011;8482;54.396;18.590;2023-03-18T15:26:25;12.93;;;6.60;;
16727;SDS011;8482;54.396;18.590;2023-03-18T15:34:43;11.77;;;6.50;;
16727;SDS011;8482;54.396;18.590;2023-03-18T15:39:56;10.52;;;5.35;;
16727;SDS011;8482;54.396;18.590;2023-03-18T15:42:23;9.23;;;5.45;;
16727;SDS011;8482;54.396;18.590;2023-03-18T15:44:56;10.70;;;5.72;;
16727;SDS011;8482;54.396;18.590;2023-03-18T15:47:27;10.68;;;5.93;;
16727;SDS011;8482;54.396;18.590;2023-03-18T15:52:43;10.00;;;5.72;;
16727;SDS011;8482;54.396;18.590;2023-03-18T15:57:56;10.45;;;5.53;;
16727;SDS011;8482;54.396;18.590;2023-03-18T16:00:23;12.70;;;6.05;;
16727;SDS011;8482;54.396;18.590;2023-03-18T16:02:50;10.93;;;5.88;;
16727;SDS011;8482;54.396;18.590;2023-03-18T16:05:17;10.73;;;5.68;;
16727;SDS011;8482;54.396;18.590;2023-03-18T16:07:44;13.10;;;5.75;;
16727;SDS011;8482;54.396;18.590;2023-03-18T16:10:13;11.63;;;5.65;;
16727;SDS011;8482;54.396;18.590;2023-03-18T16:12:55;11.02;;;5.38;;
16727;SDS011;8482;54.396;18.590;2023-03-18T16:15:25;12.57;;;6.05;;
16727;SDS011;8482;54.396;18.590;2023-03-18T16:17:54;11.05;;;6.47;;
16727;SDS011;8482;54.396;18.590;2023-03-18T16:20:26;11.85;;;6.13;;
16727;SDS011;8482;54.396;18.590;2023-03-18T16:22:55;12.10;;;5.68;;
16727;SDS011;8482;54.396;18.590;2023-03-18T16:25:22;13.15;;;6.38;;
16727;SDS011;8482;54.396;18.590;2023-03-18T16:27:51;12.20;;;6.72;;
16727;SDS011;8482;54.396;18.590;2023-03-18T16:30:22;11.63;;;6.30;;
16727;SDS011;8482;54.396;18.590;2023-03-18T16:32:55;12.73;;;5.97;;
16727;SDS011;8482;54.396;18.590;2023-03-18T16:35:40;13.65;;;7.18;;
16727;SDS011;8482;54.396;18.590;2023-03-18T16:38:11;13.38;;;6.30;;
16727;SDS011;8482;54.396;18.590;2023-03-18T16:40:42;11.02;;;6.13;;
16727;SDS011;8482;54.396;18.590;2023-03-18T16:43:20;12.45;;;6.50;;
16727;SDS011;8482;54.396;18.590;2023-03-18T16:45:59;12.05;;;6.47;;
16727;SDS011;8482;54.396;18.590;2023-03-18T16:48:29;14.05;;;6.75;;
16727;SDS011;8482;54.396;18.590;2023-03-18T16:50:56;12.30;;;6.55;;
16727;SDS011;8482;54.396;18.590;2023-03-18T16:53:23;13.63;;;7.00;;
16727;SDS011;8482;54.396;18.590;2023-03-18T16:55:57;13.95;;;7.03;;
16727;SDS011;8482;54.396;18.590;2023-03-18T16:58:28;12.07;;;6.85;;
16727;SDS011;8482;54.396;18.590;2023-03-18T17:01:00;13.05;;;7.13;;
16727;SDS011;8482;54.396;18.590;2023-03-18T17:03:30;11.85;;;6.40;;
16727;SDS011;8482;54.396;18.590;2023-03-18T17:05:56;12.70;;;6.95;;
16727;SDS011;8482;54.396;18.590;2023-03-18T17:08:22;13.90;;;6.97;;
16727;SDS011;8482;54.396;18.590;2023-03-18T17:10:49;13.60;;;7.82;;
16727;SDS011;8482;54.396;18.590;2023-03-18T17:13:22;13.45;;;6.95;;
16727;SDS011;8482;54.396;18.590;2023-03-18T17:15:53;13.27;;;7.28;;
16727;SDS011;8482;54.396;18.590;2023-03-18T17:18:20;13.63;;;7.25;;
16727;SDS011;8482;54.396;18.590;2023-03-18T17:20:49;12.88;;;6.85;;
16727;SDS011;8482;54.396;18.590;2023-03-18T17:23:22;11.77;;;6.80;;
16727;SDS011;8482;54.396;18.590;2023-03-18T17:25:53;12.68;;;7.20;;
16727;SDS011;8482;54.396;18.590;2023-03-18T17:31:03;12.50;;;6.93;;
16727;SDS011;8482;54.396;18.590;2023-03-18T17:33:30;13.57;;;7.30;;
16727;SDS011;8482;54.396;18.590;2023-03-18T17:35:59;14.05;;;7.00;;
16727;SDS011;8482;54.396;18.590;2023-03-18T17:38:26;15.68;;;8.55;;
16727;SDS011;8482;54.396;18.590;2023-03-18T17:40:54;14.35;;;7.60;;
16727;SDS011;8482;54.396;18.590;2023-03-18T17:45:56;15.18;;;8.27;;
16727;SDS011;8482;54.396;18.590;2023-03-18T17:48:31;14.27;;;7.32;;
16727;SDS011;8482;54.396;18.590;2023-03-18T17:51:03;13.02;;;7.70;;
16727;SDS011;8482;54.396;18.590;2023-03-18T17:56:06;14.27;;;8.13;;
16727;SDS011;8482;54.396;18.590;2023-03-18T17:58:43;15.60;;;8.90;;
16727;SDS011;8482;54.396;18.590;2023-03-18T18:01:16;14.32;;;7.78;;
16727;SDS011;8482;54.396;18.590;2023-03-18T18:03:54;13.75;;;8.40;;
16727;SDS011;8482;54.396;18.590;2023-03-18T18:06:23;14.93;;;8.52;;
16727;SDS011;8482;54.396;18.590;2023-03-18T18:08:55;15.82;;;8.63;;
16727;SDS011;8482;54.396;18.590;2023-03-18T18:11:25;14.60;;;8.38;;
16727;SDS011;8482;54.396;18.590;2023-03-18T18:14:32;16.05;;;9.35;;
16727;SDS011;8482;54.396;18.590;2023-03-18T18:16:55;15.85;;;8.98;;
16727;SDS011;8482;54.396;18.590;2023-03-18T18:19:21;16.35;;;8.38;;
16727;SDS011;8482;54.396;18.590;2023-03-18T18:21:48;16.02;;;9.77;;
16727;SDS011;8482;54.396;18.590;2023-03-18T18:24:20;15.20;;;9.27;;
16727;SDS011;8482;54.396;18.590;2023-03-18T18:26:51;16.85;;;9.48;;
16727;SDS011;8482;54.396;18.590;2023-03-18T18:29:19;15.98;;;9.65;;
16727;SDS011;8482;54.396;18.590;2023-03-18T18:31:48;18.63;;;9.25;;
16727;SDS011;8482;54.396;18.590;2023-03-18T18:34:15;16.38;;;8.45;;
16727;SDS011;8482;54.396;18.590;2023-03-18T18:36:42;17.23;;;9.00;;
16727;SDS011;8482;54.396;18.590;2023-03-18T18:39:09;15.45;;;8.18;;
16727;SDS011;8482;54.396;18.590;2023-03-18T18:41:35;16.33;;;9.25;;
16727;SDS011;8482;54.396;18.590;2023-03-18T18:44:01;17.75;;;9.13;;
16727;SDS011;8482;54.396;18.590;2023-03-18T18:46:27;13.68;;;8.77;;
16727;SDS011;8482;54.396;18.590;2023-03-18T18:48:55;15.80;;;9.38;;
16727;SDS011;8482;54.396;18.590;2023-03-18T18:51:21;18.42;;;9.82;;
16727;SDS011;8482;54.396;18.590;2023-03-18T18:53:50;16.90;;;10.30;;
16727;SDS011;8482;54.396;18.590;2023-03-18T18:56:19;18.25;;;10.52;;
16727;SDS011;8482;54.396;18.590;2023-03-18T18:59:01;18.00;;;9.20;;
16727;SDS011;8482;54.396;18.590;2023-03-18T19:01:41;17.17;;;9.57;;
16727;SDS011;8482;54.396;18.590;2023-03-18T19:04:12;13.85;;;9.20;;
16727;SDS011;8482;54.396;18.590;2023-03-18T19:06:39;16.67;;;9.73;;
16727;SDS011;8482;54.396;18.590;2023-03-18T19:09:11;19.63;;;9.95;;
16727;SDS011;8482;54.396;18.590;2023-03-18T19:11:46;17.63;;;9.73;;
16727;SDS011;8482;54.396;18.590;2023-03-18T19:14:18;18.33;;;10.82;;
16727;SDS011;8482;54.396;18.590;2023-03-18T19:16:51;18.80;;;9.80;;
16727;SDS011;8482;54.396;18.590;2023-03-18T19:19:20;18.00;;;10.63;;
16727;SDS011;8482;54.396;18.590;2023-03-18T19:21:52;21.77;;;11.43;;
16727;SDS011;8482;54.396;18.590;2023-03-18T19:24:26;18.85;;;10.57;;
16727;SDS011;8482;54.396;18.590;2023-03-18T19:26:56;16.55;;;9.98;;
16727;SDS011;8482;54.396;18.590;2023-03-18T19:29:26;18.23;;;10.45;;
16727;SDS011;8482;54.396;18.590;2023-03-18T19:31:53;19.75;;;11.52;;
16727;SDS011;8482;54.396;18.590;2023-03-18T19:34:19;19.88;;;10.52;;
16727;SDS011;8482;54.396;18.590;2023-03-18T19:36:47;19.88;;;11.20;;
16727;SDS011;8482;54.396;18.590;2023-03-18T19:39:20;17.98;;;10.68;;
16727;SDS011;8482;54.396;18.590;2023-03-18T19:41:47;18.55;;;10.82;;
16727;SDS011;8482;54.396;18.590;2023-03-18T19:44:21;19.60;;;12.02;;
16727;SDS011;8482;54.396;18.590;2023-03-18T19:46:54;18.42;;;10.80;;
16727;SDS011;8482;54.396;18.590;2023-03-18T19:51:52;18.80;;;11.18;;
16727;SDS011;8482;54.396;18.590;2023-03-18T19:54:23;20.27;;;11.57;;
16727;SDS011;8482;54.396;18.590;2023-03-18T19:56:58;22.77;;;11.88;;
16727;SDS011;8482;54.396;18.590;2023-03-18T19:59:31;22.77;;;11.70;;
16727;SDS011;8482;54.396;18.590;2023-03-18T20:01:58;20.05;;;12.10;;
16727;SDS011;8482;54.396;18.590;2023-03-18T20:04:25;21.60;;;12.05;;
16727;SDS011;8482;54.396;18.590;2023-03-18T20:06:54;20.60;;;12.10;;
16727;SDS011;8482;54.396;18.590;2023-03-18T20:09:21;21.20;;;12.45;;
16727;SDS011;8482;54.396;18.590;2023-03-18T20:11:49;20.58;;;12.00;;
16727;SDS011;8482;54.396;18.590;2023-03-18T20:14:24;23.75;;;12.75;;
16727;SDS011;8482;54.396;18.590;2023-03-18T20:16:53;20.88;;;11.82;;
16727;SDS011;8482;54.396;18.590;2023-03-18T20:19:20;21.70;;;11.80;;
16727;SDS011;8482;54.396;18.590;2023-03-18T20:21:46;25.65;;;14.23;;
16727;SDS011;8482;54.396;18.590;2023-03-18T20:24:14;19.55;;;11.98;;
16727;SDS011;8482;54.396;18.590;2023-03-18T20:26:47;22.20;;;12.25;;
16727;SDS011;8482;54.396;18.590;2023-03-18T20:29:17;21.33;;;12.80;;
16727;SDS011;8482;54.396;18.590;2023-03-18T20:31:47;22.33;;;12.88;;
16727;SDS011;8482;54.396;18.590;2023-03-18T20:34:13;21.65;;;12.38;;
16727;SDS011;8482;54.396;18.590;2023-03-18T20:36:39;23.83;;;13.75;;
16727;SDS011;8482;54.396;18.590;2023-03-18T20:39:07;24.70;;;12.68;;
16727;SDS011;8482;54.396;18.590;2023-03-18T20:41:44;25.20;;;12.52;;
16727;SDS011;8482;54.396;18.590;2023-03-18T20:44:12;24.75;;;13.65;;
16727;SDS011;8482;54.396;18.590;2023-03-18T20:46:38;23.27;;;12.82;;
16727;SDS011;8482;54.396;18.590;2023-03-18T20:49:05;21.83;;;12.80;;
16727;SDS011;8482;54.396;18.590;2023-03-18T20:51:34;24.42;;;12.38;;
16727;SDS011;8482;54.396;18.590;2023-03-18T20:54:14;20.25;;;11.82;;
16727;SDS011;8482;54.396;18.590;2023-03-18T20:56:44;23.88;;;12.75;;
16727;SDS011;8482;54.396;18.590;2023-03-18T20:59:10;22.15;;;12.45;;
16727;SDS011;8482;54.396;18.590;2023-03-18T21:01:37;20.67;;;12.00;;
16727;SDS011;8482;54.396;18.590;2023-03-18T21:04:04;19.55;;;12.73;;
16727;SDS011;8482;54.396;18.590;2023-03-18T21:06:31;21.83;;;13.05;;
16727;SDS011;8482;54.396;18.590;2023-03-18T21:08:57;20.60;;;12.25;;
16727;SDS011;8482;54.396;18.590;2023-03-18T21:11:27;20.85;;;12.15;;
16727;SDS011;8482;54.396;18.590;2023-03-18T21:13:56;22.88;;;13.15;;
16727;SDS011;8482;54.396;18.590;2023-03-18T21:16:23;18.95;;;11.27;;
16727;SDS011;8482;54.396;18.590;2023-03-18T21:18:49;24.75;;;12.32;;
16727;SDS011;8482;54.396;18.590;2023-03-18T21:21:34;18.65;;;10.60;;
16727;SDS011;8482;54.396;18.590;2023-03-18T21:24:13;19.98;;;10.82;;
16727;SDS011;8482;54.396;18.590;2023-03-18T21:26:50;18.15;;;11.07;;
16727;SDS011;8482;54.396;18.590;2023-03-18T21:29:19;19.38;;;10.57;;
16727;SDS011;8482;54.396;18.590;2023-03-18T21:31:45;20.42;;;11.65;;
16727;SDS011;8482;54.396;18.590;2023-03-18T21:34:11;17.50;;;10.50;;
16727;SDS011;8482;54.396;18.590;2023-03-18T21:36:37;20.20;;;11.15;;
16727;SDS011;8482;54.396;18.590;2023-03-18T21:39:03;22.00;;;11.35;;
16727;SDS011;8482;54.396;18.590;2023-03-18T21:41:31;20.70;;;11.05;;
16727;SDS011;8482;54.396;18.590;2023-03-18T21:43:58;19.25;;;10.32;;
16727;SDS011;8482;54.396;18.590;2023-03-18T21:46:24;20.45;;;11.32;;
16727;SDS011;8482;54.396;18.590;2023-03-18T21:48:51;20.25;;;11.23;;
16727;SDS011;8482;54.396;18.590;2023-03-18T21:54:16;19.17;;;10.90;;
16727;SDS011;8482;54.396;18.590;2023-03-18T21:56:43;21.25;;;11.30;;
16727;SDS011;8482;54.396;18.590;2023-03-18T21:59:09;19.92;;;10.98;;
16727;SDS011;8482;54.396;18.590;2023-03-18T22:01:34;23.20;;;11.82;;
16727;SDS011;8482;54.396;18.590;2023-03-18T22:04:00;20.35;;;10.50;;
16727;SDS011;8482;54.396;18.590;2023-03-18T22:06:26;19.75;;;11.07;;
16727;SDS011;8482;54.396;18.590;2023-03-18T22:08:52;20.50;;;11.60;;
16727;SDS011;8482;54.396;18.590;2023-03-18T22:11:20;19.52;;;10.35;;
16727;SDS011;8482;54.396;18.590;2023-03-18T22:13:46;18.50;;;10.82;;
16727;SDS011;8482;54.396;18.590;2023-03-18T22:16:13;19.27;;;11.75;;
16727;SDS011;8482;54.396;18.590;2023-03-18T22:18:42;21.42;;;11.43;;
16727;SDS011;8482;54.396;18.590;2023-03-18T22:21:27;21.38;;;12.52;;
16727;SDS011;8482;54.396;18.590;2023-03-18T22:23:53;20.95;;;12.52;;
16727;SDS011;8482;54.396;18.590;2023-03-18T22:26:21;23.55;;;12.20;;
16727;SDS011;8482;54.396;18.590;2023-03-18T22:28:47;20.67;;;11.57;;
16727;SDS011;8482;54.396;18.590;2023-03-18T22:31:21;22.00;;;12.25;;
16727;SDS011;8482;54.396;18.590;2023-03-18T22:33:50;22.08;;;12.00;;
16727;SDS011;8482;54.396;18.590;2023-03-18T22:36:18;19.92;;;12.00;;
16727;SDS011;8482;54.396;18.590;2023-03-18T22:38:49;21.25;;;11.88;;
16727;SDS011;8482;54.396;18.590;2023-03-18T22:41:19;19.85;;;10.80;;
16727;SDS011;8482;54.396;18.590;2023-03-18T22:43:49;21.27;;;11.70;;
16727;SDS011;8482;54.396;18.590;2023-03-18T22:46:15;21.70;;;11.98;;
16727;SDS011;8482;54.396;18.590;2023-03-18T22:48:41;21.63;;;11.82;;
16727;SDS011;8482;54.396;18.590;2023-03-18T22:51:08;18.52;;;10.88;;
16727;SDS011;8482;54.396;18.590;2023-03-18T22:53:46;20.17;;;11.43;;
16727;SDS011;8482;54.396;18.590;2023-03-18T22:56:16;18.77;;;10.98;;
16727;SDS011;8482;54.396;18.590;2023-03-18T22:58:42;19.20;;;11.23;;
16727;SDS011;8482;54.396;18.590;2023-03-18T23:01:18;20.75;;;11.38;;
16727;SDS011;8482;54.396;18.590;2023-03-18T23:03:50;18.55;;;10.52;;
16727;SDS011;8482;54.396;18.590;2023-03-18T23:06:17;18.95;;;10.63;;
16727;SDS011;8482;54.396;18.590;2023-03-18T23:08:47;19.17;;;10.30;;
16727;SDS011;8482;54.396;18.590;2023-03-18T23:11:14;20.80;;;11.57;;
16727;SDS011;8482;54.396;18.590;2023-03-18T23:13:41;20.13;;;10.68;;
16727;SDS011;8482;54.396;18.590;2023-03-18T23:16:14;20.92;;;10.68;;
16727;SDS011;8482;54.396;18.590;2023-03-18T23:18:47;20.65;;;10.73;;
16727;SDS011;8482;54.396;18.590;2023-03-18T23:21:15;19.60;;;10.88;;
16727;SDS011;8482;54.396;18.590;2023-03-18T23:23:44;21.83;;;11.05;;
16727;SDS011;8482;54.396;18.590;2023-03-18T23:26:10;19.55;;;9.88;;
16727;SDS011;8482;54.396;18.590;2023-03-18T23:28:37;19.55;;;11.10;;
16727;SDS011;8482;54.396;18.590;2023-03-18T23:31:03;17.98;;;10.18;;
16727;SDS011;8482;54.396;18.590;2023-03-18T23:33:29;19.45;;;10.18;;
16727;SDS011;8482;54.396;18.590;2023-03-18T23:35:56;18.73;;;11.13;;
16727;SDS011;8482;54.396;18.590;2023-03-18T23:38:21;17.20;;;10.85;;
16727;SDS011;8482;54.396;18.590;2023-03-18T23:40:47;19.98;;;10.57;;
16727;SDS011;8482;54.396;18.590;2023-03-18T23:43:14;16.90;;;9.88;;
16727;SDS011;8482;54.396;18.590;2023-03-18T23:45:40;18.25;;;10.30;;
16727;SDS011;8482;54.396;18.590;2023-03-18T23:48:06;18.23;;;10.52;;
16727;SDS011;8482;54.396;18.590;2023-03-18T23:50:31;17.85;;;10.10;;
16727;SDS011;8482;54.396;18.590;2023-03-18T23:52:58;21.13;;;11.30;;
16727;SDS011;8482;54.396;18.590;2023-03-18T23:55:24;16.10;;;9.65;;
16727;SDS011;8482;54.396;18.590;2023-03-18T23:57:50;17.88;;;10.48;;
